Time;durP1;ratioP1;P1;durP2;ratioP2;P2;SDS_P1;SDS_P2;PMS_P1;PMS_P2;Temp;Humidity;BMP_temperature;BMP_pressure;BME280_temperature;BME280_humidity;BME280_pressure;Samples;Min_cycle;Max_cycle;Signal;HPM_P1;HPM_P2
2021/03/14 00:00:49;;;;;;;0.82;0.45;;;5.20;99.90;;;;;;5013219;28;20380;-76
2021/03/14 00:03:22;;;;;;;2.50;0.40;;;4.60;99.90;;;;;;5028858;28;20513;-71
2021/03/14 00:05:50;;;;;;;0.50;0.35;;;5.10;99.90;;;;;;5013058;28;20462;-76
2021/03/14 00:08:18;;;;;;;1.95;0.40;;;6.20;99.90;;;;;;5013274;28;20400;-70
2021/03/14 00:10:47;;;;;;;0.50;0.30;;;5.80;99.90;;;;;;5013285;28;20984;-70
2021/03/14 00:13:15;;;;;;;2.30;0.40;;;5.40;99.90;;;;;;5012902;28;20388;-71
2021/03/14 00:15:41;;;;;;;2.77;0.50;;;5.80;99.90;;;;;;5013194;28;20815;-70
2021/03/14 00:18:07;;;;;;;0.63;0.40;;;5.90;99.90;;;;;;5012495;28;20448;-70
2021/03/14 00:20:32;;;;;;;0.40;0.30;;;5.10;99.90;;;;;;5013427;28;20373;-70
2021/03/14 00:22:58;;;;;;;0.70;0.40;;;4.90;99.90;;;;;;5012560;28;20416;-70
2021/03/14 00:25:24;;;;;;;0.50;0.30;;;6.00;99.90;;;;;;5012982;28;20455;-70
2021/03/14 00:27:50;;;;;;;0.40;0.30;;;6.00;99.90;;;;;;5012751;28;20396;-75
2021/03/14 00:30:16;;;;;;;0.73;0.40;;;5.20;99.90;;;;;;5012547;28;20756;-70
2021/03/14 00:32:43;;;;;;;0.60;0.40;;;5.10;99.90;;;;;;4998479;28;20391;-70
2021/03/14 00:35:12;;;;;;;1.00;0.40;;;5.60;99.90;;;;;;4992907;28;20626;-70
2021/03/14 00:37:38;;;;;;;0.60;0.30;;;4.80;99.90;;;;;;4993415;28;20485;-70
2021/03/14 00:40:08;;;;;;;1.10;0.40;;;6.30;99.90;;;;;;4992299;28;20859;-70
2021/03/14 00:42:35;;;;;;;0.60;0.40;;;5.10;99.90;;;;;;4993504;28;20546;-70
2021/03/14 00:45:02;;;;;;;0.50;0.40;;;5.90;99.90;;;;;;4992298;28;20398;-71
2021/03/14 00:47:28;;;;;;;0.40;0.30;;;5.00;99.90;;;;;;4993150;28;20413;-71
2021/03/14 00:49:54;;;;;;;0.60;0.40;;;6.20;99.90;;;;;;4992155;28;20394;-72
2021/03/14 00:52:19;;;;;;;0.40;0.30;;;6.00;99.90;;;;;;4993008;28;20474;-71
2021/03/14 00:54:45;;;;;;;0.60;0.40;;;5.70;99.90;;;;;;4993181;28;20502;-71
2021/03/14 00:57:11;;;;;;;1.00;0.60;;;5.80;99.90;;;;;;4992546;28;20951;-70
2021/03/14 00:59:36;;;;;;;2.60;0.60;;;5.50;99.90;;;;;;4993492;28;20403;-72
2021/03/14 01:02:02;;;;;;;0.87;0.53;;;5.80;99.90;;;;;;5007200;28;20907;-70
2021/03/14 01:04:28;;;;;;;1.70;0.60;;;4.80;99.90;;;;;;4992225;28;20420;-70
2021/03/14 01:06:54;;;;;;;0.70;0.35;;;5.90;99.90;;;;;;4991945;28;20729;-75
2021/03/14 01:09:19;;;;;;;1.40;0.50;;;5.80;99.90;;;;;;4992950;28;20917;-71
2021/03/14 01:11:45;;;;;;;1.50;0.47;;;6.20;99.90;;;;;;4992173;28;20383;-71
2021/03/14 01:14:11;;;;;;;1.27;0.60;;;6.40;99.90;;;;;;4991766;28;20443;-71
2021/03/14 01:16:36;;;;;;;0.40;0.40;;;4.90;99.90;;;;;;4992800;28;20406;-70
2021/03/14 01:19:02;;;;;;;2.70;0.60;;;4.90;99.90;;;;;;4991670;28;20867;-71
2021/03/14 01:21:28;;;;;;;0.68;0.43;;;4.70;99.90;;;;;;4992640;28;20386;-70
2021/03/14 01:23:53;;;;;;;0.40;0.40;;;5.40;99.90;;;;;;4992250;28;20461;-76
2021/03/14 01:26:19;;;;;;;0.40;0.40;;;4.70;99.90;;;;;;4992422;28;20856;-71
2021/03/14 01:28:47;;;;;;;0.40;0.40;;;4.90;99.90;;;;;;4992323;28;20467;-72
2021/03/14 01:31:13;;;;;;;0.80;0.50;;;4.70;99.90;;;;;;4993895;28;20410;-73
2021/03/14 01:33:39;;;;;;;2.00;0.47;;;4.80;99.90;;;;;;5011975;28;20431;-72
2021/03/14 01:36:05;;;;;;;0.60;0.50;;;4.60;99.90;;;;;;5010844;28;20411;-72
2021/03/14 01:38:31;;;;;;;1.10;0.60;;;4.50;99.90;;;;;;5011957;28;20381;-72
2021/03/14 01:40:56;;;;;;;1.20;0.40;;;4.70;99.90;;;;;;5010986;28;20408;-73
2021/03/14 01:43:22;;;;;;;1.97;0.53;;;5.10;99.90;;;;;;5011843;28;20892;-71
2021/03/14 01:45:47;;;;;;;0.65;0.43;;;4.60;99.90;;;;;;5011316;28;20865;-71
2021/03/14 01:48:21;;;;;;;0.60;0.60;;;4.60;99.90;;;;;;5010884;28;20472;-71
2021/03/14 01:50:48;;;;;;;0.70;0.40;;;5.40;99.90;;;;;;5011699;28;20388;-70
2021/03/14 01:53:14;;;;;;;1.20;0.40;;;4.70;99.90;;;;;;5010596;28;21022;-70
2021/03/14 01:55:40;;;;;;;0.97;0.43;;;4.50;99.90;;;;;;5011182;28;20393;-71
2021/03/14 01:58:05;;;;;;;0.70;0.60;;;4.40;99.90;;;;;;5010667;28;20400;-69
2021/03/14 02:00:31;;;;;;;0.93;0.57;;;4.30;99.90;;;;;;5011151;28;20389;-69
2021/03/14 02:02:57;;;;;;;0.50;0.40;;;4.90;99.90;;;;;;5010861;28;20421;-74
2021/03/14 02:05:23;;;;;;;1.17;0.47;;;4.90;99.90;;;;;;5011212;28;20857;-72
2021/03/14 02:07:52;;;;;;;0.90;0.50;;;4.90;99.90;;;;;;5011432;28;20377;-69
2021/03/14 02:10:22;;;;;;;1.30;0.40;;;4.80;99.90;;;;;;5010341;28;20492;-69
2021/03/14 02:13:06;;;;;;;1.20;0.50;;;5.20;99.90;;;;;;5011177;28;20389;-69
2021/03/14 02:15:35;;;;;;;0.50;0.30;;;4.50;99.90;;;;;;5011697;28;20385;-69
2021/03/14 02:18:03;;;;;;;0.60;0.40;;;4.50;99.90;;;;;;5010559;28;20389;-69
2021/03/14 02:20:30;;;;;;;0.60;0.40;;;5.10;99.90;;;;;;5011059;28;20416;-69
2021/03/14 02:23:21;;;;;;;0.40;0.30;;;5.10;99.90;;;;;;5010636;28;20424;-74
2021/03/14 02:26:07;;;;;;;0.50;0.30;;;4.50;99.90;;;;;;5010711;28;20707;-68
2021/03/14 02:28:35;;;;;;;0.60;0.30;;;4.50;99.90;;;;;;5010959;28;20392;-68
2021/03/14 02:31:04;;;;;;;0.82;0.30;;;4.80;99.90;;;;;;5009357;28;20388;-68
2021/03/14 02:33:32;;;;;;;0.50;0.30;;;4.30;99.90;;;;;;4991841;28;20386;-68
2021/03/14 02:35:59;;;;;;;0.40;0.35;;;4.60;99.90;;;;;;4990281;28;20386;-74
2021/03/14 02:38:25;;;;;;;0.45;0.30;;;4.50;99.90;;;;;;4991447;28;20478;-68
2021/03/14 02:40:54;;;;;;;0.40;0.30;;;4.80;99.90;;;;;;4991173;28;20469;-70
2021/03/14 02:43:21;;;;;;;0.90;0.30;;;4.70;99.90;;;;;;4990232;28;20464;-69
2021/03/14 02:45:47;;;;;;;0.40;0.20;;;4.20;99.90;;;;;;4991032;28;20382;-70
2021/03/14 02:48:13;;;;;;;0.50;0.30;;;4.30;99.90;;;;;;4990155;28;20899;-69
2021/03/14 02:50:39;;;;;;;0.50;0.30;;;4.60;99.90;;;;;;4991097;28;20385;-68
2021/03/14 02:53:07;;;;;;;0.40;0.30;;;4.50;99.90;;;;;;4990299;28;20405;-68
2021/03/14 02:55:32;;;;;;;0.50;0.40;;;4.60;99.90;;;;;;4990819;28;20436;-68
2021/03/14 02:57:59;;;;;;;0.60;0.40;;;5.70;99.90;;;;;;4990208;28;20877;-72
2021/03/14 03:00:27;;;;;;;0.40;0.30;;;4.50;99.90;;;;;;4990943;28;20433;-68
2021/03/14 03:02:55;;;;;;;0.70;0.22;;;4.70;99.90;;;;;;4990504;28;20414;-68
2021/03/14 03:05:22;;;;;;;0.40;0.20;;;4.60;99.90;;;;;;4989876;28;20382;-69
2021/03/14 03:07:58;;;;;;;0.40;0.20;;;4.50;99.90;;;;;;4990698;28;20783;-68
2021/03/14 03:10:41;;;;;;;0.50;0.40;;;5.60;99.90;;;;;;4990361;28;20436;-68
2021/03/14 03:13:08;;;;;;;1.38;0.40;;;5.30;99.90;;;;;;4989985;28;20863;-69
2021/03/14 03:15:35;;;;;;;0.40;0.20;;;6.40;99.90;;;;;;4991160;28;20398;-69
2021/03/14 03:18:02;;;;;;;0.47;0.30;;;4.70;99.90;;;;;;4990034;28;20501;-75
2021/03/14 03:20:28;;;;;;;0.50;0.40;;;4.60;99.90;;;;;;4990879;28;20383;-68
2021/03/14 03:22:55;;;;;;;0.60;0.30;;;4.80;99.90;;;;;;4990633;28;20450;-69
2021/03/14 03:25:23;;;;;;;0.57;0.30;;;4.90;99.90;;;;;;4989732;28;21026;-68
2021/03/14 03:27:49;;;;;;;0.60;0.35;;;5.60;99.90;;;;;;4990889;28;20460;-68
2021/03/14 03:30:18;;;;;;;1.63;0.50;;;4.90;99.90;;;;;;4989978;28;20708;-67
2021/03/14 03:32:45;;;;;;;1.27;0.38;;;4.40;99.90;;;;;;5005563;28;20718;-69
2021/03/14 03:35:12;;;;;;;0.65;0.30;;;5.20;99.90;;;;;;5011859;28;20507;-68
2021/03/14 03:37:38;;;;;;;0.55;0.30;;;5.10;99.90;;;;;;5013766;28;20413;-68
2021/03/14 03:40:07;;;;;;;0.60;0.40;;;5.00;99.90;;;;;;5013405;28;20450;-70
2021/03/14 03:42:40;;;;;;;0.90;0.40;;;4.60;99.90;;;;;;5013665;28;20424;-68
2021/03/14 03:45:07;;;;;;;1.20;0.20;;;4.80;99.90;;;;;;5013602;28;20396;-69
2021/03/14 03:47:34;;;;;;;2.72;0.40;;;4.60;99.90;;;;;;5013729;28;20468;-68
2021/03/14 03:50:01;;;;;;;1.00;0.30;;;4.80;99.90;;;;;;5013688;28;20896;-74
2021/03/14 03:52:27;;;;;;;0.80;0.40;;;4.90;99.90;;;;;;5013288;28;20420;-69
2021/03/14 03:54:53;;;;;;;0.73;0.40;;;4.60;99.90;;;;;;5014068;28;20381;-68
2021/03/14 03:57:20;;;;;;;1.20;0.40;;;4.90;99.90;;;;;;5013198;28;20744;-69
2021/03/14 03:59:48;;;;;;;0.50;0.30;;;4.50;99.90;;;;;;5013989;28;20927;-69
2021/03/14 04:02:15;;;;;;;0.80;0.50;;;4.80;99.90;;;;;;5028031;28;20420;-69
2021/03/14 04:04:42;;;;;;;2.20;0.43;;;5.70;99.90;;;;;;5013774;28;20381;-69
2021/03/14 04:07:11;;;;;;;1.55;0.40;;;5.80;99.90;;;;;;5012838;28;20396;-69
2021/03/14 04:09:38;;;;;;;1.00;0.50;;;5.00;99.90;;;;;;5013267;28;20381;-68
2021/03/14 04:12:05;;;;;;;0.40;0.40;;;4.20;99.90;;;;;;5013010;28;20388;-73
2021/03/14 04:14:32;;;;;;;1.20;0.60;;;4.10;99.90;;;;;;5013563;28;20495;-69
2021/03/14 04:16:59;;;;;;;1.80;0.60;;;5.10;99.90;;;;;;5028719;28;20715;-69
2021/03/14 04:19:28;;;;;;;0.63;0.40;;;4.90;99.90;;;;;;5012705;28;20378;-68
2021/03/14 04:21:55;;;;;;;0.88;0.60;;;4.70;99.90;;;;;;5013430;28;20419;-68
2021/03/14 04:24:23;;;;;;;0.60;0.40;;;4.70;99.90;;;;;;5012806;28;20424;-67
2021/03/14 04:26:49;;;;;;;0.90;0.50;;;5.60;99.90;;;;;;5013392;28;20400;-68
2021/03/14 04:29:17;;;;;;;0.80;0.50;;;5.60;99.90;;;;;;5012455;28;20397;-67
2021/03/14 04:31:44;;;;;;;1.00;0.85;;;4.70;99.90;;;;;;5006502;28;20394;-69
2021/03/14 04:34:12;;;;;;;1.90;0.50;;;4.10;99.90;;;;;;4992438;28;20394;-67
2021/03/14 04:36:39;;;;;;;1.30;0.50;;;4.30;99.90;;;;;;5008160;28;20843;-67
2021/03/14 04:39:06;;;;;;;1.20;0.40;;;5.20;99.90;;;;;;4992771;28;20474;-71
2021/03/14 04:41:34;;;;;;;1.20;0.50;;;4.90;99.90;;;;;;4993122;28;20440;-67
2021/03/14 04:44:01;;;;;;;1.13;0.82;;;4.50;99.90;;;;;;4993044;28;20387;-67
2021/03/14 04:46:26;;;;;;;0.83;0.70;;;5.10;99.90;;;;;;5006362;28;21024;-67
2021/03/14 04:48:56;;;;;;;1.65;0.70;;;4.10;99.90;;;;;;4993291;28;20418;-67
2021/03/14 04:51:26;;;;;;;2.10;0.60;;;5.70;99.90;;;;;;4992250;28;20759;-68
2021/03/14 04:53:53;;;;;;;1.40;0.47;;;4.90;99.90;;;;;;5008352;28;20417;-68
2021/03/14 04:56:20;;;;;;;1.30;0.60;;;4.70;99.90;;;;;;4992710;28;20428;-67
2021/03/14 04:58:49;;;;;;;0.88;0.40;;;4.20;99.90;;;;;;4992810;28;20425;-67
2021/03/14 05:01:18;;;;;;;0.60;0.40;;;4.40;99.90;;;;;;4992448;28;20398;-68
2021/03/14 05:03:47;;;;;;;0.60;0.50;;;5.30;99.90;;;;;;4993166;28;20465;-67
2021/03/14 05:06:17;;;;;;;0.50;0.32;;;4.50;99.90;;;;;;5007738;28;20887;-68
2021/03/14 05:08:43;;;;;;;0.90;0.50;;;4.70;99.90;;;;;;4993385;28;20465;-67
2021/03/14 05:11:09;;;;;;;1.13;0.40;;;4.00;99.90;;;;;;4992277;28;20418;-74
2021/03/14 05:13:37;;;;;;;0.55;0.45;;;5.50;99.90;;;;;;4993349;28;20426;-69
2021/03/14 05:16:04;;;;;;;0.70;0.30;;;4.40;99.90;;;;;;4993691;28;20441;-69
2021/03/14 05:18:30;;;;;;;1.10;0.30;;;4.00;99.90;;;;;;4992606;28;20394;-67
2021/03/14 05:20:57;;;;;;;0.40;0.30;;;5.10;99.90;;;;;;4993015;28;20397;-68
2021/03/14 05:23:24;;;;;;;0.60;0.30;;;4.10;99.90;;;;;;4992350;28;20406;-68
2021/03/14 05:25:51;;;;;;;0.50;0.40;;;4.00;99.90;;;;;;4992885;28;20838;-69
2021/03/14 05:28:19;;;;;;;0.80;0.40;;;4.10;99.90;;;;;;4992070;28;20798;-68
2021/03/14 05:30:44;;;;;;;0.60;0.40;;;4.00;99.90;;;;;;4992984;28;20374;-68
2021/03/14 05:33:10;;;;;;;0.40;0.30;;;4.30;99.90;;;;;;5010397;28;20462;-69
2021/03/14 05:35:36;;;;;;;1.20;0.40;;;4.90;99.90;;;;;;5012548;28;20768;-68
2021/03/14 05:38:02;;;;;;;0.60;0.40;;;4.70;99.90;;;;;;5012578;28;20452;-68
2021/03/14 05:40:29;;;;;;;0.40;0.30;;;4.40;99.90;;;;;;5011595;28;20469;-68
2021/03/14 05:42:55;;;;;;;1.00;0.30;;;4.90;99.90;;;;;;5012319;28;20409;-68
2021/03/14 05:45:21;;;;;;;0.40;0.20;;;4.50;99.90;;;;;;5011503;28;20388;-68
2021/03/14 05:47:48;;;;;;;0.70;0.25;;;4.70;99.90;;;;;;5012248;28;20385;-68
2021/03/14 05:50:17;;;;;;;1.80;0.50;;;4.50;99.90;;;;;;5011119;28;20884;-68
2021/03/14 05:52:44;;;;;;;0.47;0.35;;;5.90;99.90;;;;;;5012026;28;20890;-68
2021/03/14 05:55:16;;;;;;;0.52;0.40;;;4.10;99.90;;;;;;5011568;28;20381;-75
2021/03/14 05:57:47;;;;;;;0.88;0.55;;;4.80;99.90;;;;;;5011998;28;20857;-70
2021/03/14 06:00:16;;;;;;;0.60;0.50;;;4.00;99.90;;;;;;5011330;28;20385;-72
2021/03/14 06:02:44;;;;;;;0.50;0.40;;;4.10;99.90;;;;;;5011949;28;20487;-68
2021/03/14 06:05:13;;;;;;;1.20;0.40;;;4.30;99.90;;;;;;5011371;28;20392;-74
2021/03/14 06:07:39;;;;;;;0.50;0.30;;;4.80;99.90;;;;;;5026942;28;20885;-68
2021/03/14 06:10:05;;;;;;;1.20;0.40;;;4.60;99.90;;;;;;5011485;28;20407;-68
2021/03/14 06:12:32;;;;;;;0.70;0.30;;;4.20;99.90;;;;;;5010756;28;20385;-68
2021/03/14 06:14:58;;;;;;;0.70;0.30;;;4.10;99.90;;;;;;5011512;28;20392;-67
2021/03/14 06:17:26;;;;;;;0.73;0.40;;;4.70;99.90;;;;;;5011008;28;20388;-68
2021/03/14 06:19:52;;;;;;;0.63;0.40;;;4.80;99.90;;;;;;5011764;28;20425;-68
2021/03/14 06:22:25;;;;;;;0.90;0.30;;;4.10;99.90;;;;;;5010769;28;20897;-68
2021/03/14 06:24:53;;;;;;;0.40;0.38;;;4.40;99.90;;;;;;5011561;28;20869;-68
2021/03/14 06:27:51;;;;;;;0.50;0.30;;;4.20;99.90;;;;;;5010453;28;20396;-68
2021/03/14 06:30:23;;;;;;;0.52;0.40;;;4.10;99.90;;;;;;5010708;28;20393;-68
2021/03/14 06:33:16;;;;;;;0.90;0.60;;;4.10;99.90;;;;;;5011252;28;20440;-70
2021/03/14 06:35:51;;;;;;;0.50;0.40;;;5.50;99.90;;;;;;5010641;28;20499;-67
2021/03/14 06:38:29;;;;;;;1.40;0.53;;;4.20;99.90;;;;;;5010459;28;20885;-68
2021/03/14 06:41:07;;;;;;;0.80;0.50;;;4.50;99.90;;;;;;5011035;28;20476;-68
2021/03/14 06:43:41;;;;;;;0.65;0.47;;;4.80;99.90;;;;;;5010494;28;20636;-67
2021/03/14 06:46:30;;;;;;;1.50;0.50;;;4.90;99.90;;;;;;5011244;28;20381;-67
2021/03/14 06:49:08;;;;;;;1.08;0.60;;;4.20;99.90;;;;;;5011150;28;20796;-68
2021/03/14 06:51:44;;;;;;;1.08;0.60;;;4.20;99.90;;;;;;5010350;28;20434;-68
2021/03/14 06:54:25;;;;;;;0.70;0.47;;;4.40;99.90;;;;;;4998825;28;20423;-68
2021/03/14 06:57:07;;;;;;;1.80;0.70;;;4.10;99.90;;;;;;5001605;28;20962;-69
2021/03/14 06:59:36;;;;;;;0.70;0.40;;;4.20;99.90;;;;;;4999448;28;20400;-70
2021/03/14 07:02:03;;;;;;;0.77;0.60;;;4.60;99.90;;;;;;4999674;28;20413;-70
2021/03/14 07:04:40;;;;;;;1.25;0.60;;;4.80;99.90;;;;;;4997160;28;20495;-70
2021/03/14 07:07:19;;;;;;;0.80;0.50;;;4.30;99.90;;;;;;5000543;28;20426;-69
2021/03/14 07:09:46;;;;;;;0.63;0.60;;;4.30;99.90;;;;;;4999467;28;20392;-73
2021/03/14 07:12:21;;;;;;;0.80;0.60;;;4.50;99.90;;;;;;5002442;28;20385;-75
2021/03/14 07:14:48;;;;;;;1.80;0.55;;;4.20;99.90;;;;;;4999979;28;20404;-72
2021/03/14 07:17:49;;;;;;;0.40;0.40;;;4.50;99.90;;;;;;4998714;28;20396;-73
2021/03/14 07:20:17;;;;;;;0.80;0.50;;;5.50;99.90;;;;;;5000145;28;20424;-74
2021/03/14 07:22:57;;;;;;;1.50;0.50;;;4.40;99.90;;;;;;4996769;28;20424;-70
2021/03/14 07:25:24;;;;;;;0.93;0.35;;;5.60;99.90;;;;;;5000426;28;20408;-73
2021/03/14 07:27:50;;;;;;;0.50;0.40;;;5.20;99.90;;;;;;5001518;28;20417;-69
2021/03/14 07:30:18;;;;;;;0.40;0.40;;;5.60;99.90;;;;;;4998991;28;20487;-74
2021/03/14 07:32:46;;;;;;;2.20;0.50;;;5.00;99.90;;;;;;4998920;28;20403;-74
2021/03/14 07:35:12;;;;;;;0.80;0.50;;;5.70;99.90;;;;;;5001718;28;20377;-69
2021/03/14 07:37:41;;;;;;;0.80;0.50;;;5.00;99.90;;;;;;4998000;28;20409;-70
2021/03/14 07:40:09;;;;;;;1.33;0.40;;;5.40;99.90;;;;;;5000292;28;20443;-70
2021/03/14 07:42:35;;;;;;;0.50;0.50;;;5.10;99.90;;;;;;4999985;28;20408;-73
2021/03/14 07:45:01;;;;;;;0.50;0.40;;;5.90;99.90;;;;;;4999763;28;20389;-69
2021/03/14 07:47:33;;;;;;;0.60;0.30;;;5.30;99.90;;;;;;4998726;28;21816;-70
2021/03/14 07:49:59;;;;;;;0.50;0.40;;;5.40;99.90;;;;;;5000589;28;20476;-70
2021/03/14 07:52:28;;;;;;;0.60;0.40;;;6.30;99.90;;;;;;4999143;28;20479;-73
2021/03/14 07:55:00;;;;;;;0.50;0.40;;;5.50;99.90;;;;;;4999085;28;20400;-70
2021/03/14 07:57:28;;;;;;;1.20;0.40;;;6.30;99.90;;;;;;5000280;28;20404;-71
2021/03/14 07:59:54;;;;;;;1.55;0.65;;;6.00;99.90;;;;;;5000802;28;20400;-68
2021/03/14 08:02:23;;;;;;;2.10;0.50;;;6.10;99.90;;;;;;4998878;28;20511;-74
2021/03/14 08:04:53;;;;;;;0.40;0.40;;;5.20;99.90;;;;;;4999816;28;20473;-70
2021/03/14 08:07:34;;;;;;;1.05;0.47;;;5.40;99.90;;;;;;4999829;28;20426;-74
2021/03/14 08:10:01;;;;;;;1.20;0.50;;;6.10;99.90;;;;;;5000311;28;20460;-69
2021/03/14 08:12:34;;;;;;;1.90;0.50;;;5.90;99.90;;;;;;4997446;28;20395;-74
2021/03/14 08:15:00;;;;;;;0.60;0.38;;;5.80;99.90;;;;;;5000883;28;20393;-69
2021/03/14 08:17:34;;;;;;;0.65;0.43;;;6.70;99.90;;;;;;5000810;28;20403;-72
2021/03/14 08:20:00;;;;;;;0.60;0.30;;;5.70;99.90;;;;;;5000216;28;20479;-71
2021/03/14 08:22:38;;;;;;;0.60;0.40;;;5.80;99.90;;;;;;5002619;28;20421;-75
2021/03/14 08:25:38;;;;;;;0.98;0.40;;;5.30;99.90;;;;;;5004634;28;20401;-71
2021/03/14 08:28:27;;;;;;;1.30;0.60;;;5.20;99.90;;;;;;5004165;28;20456;-73
2021/03/14 08:31:03;;;;;;;1.20;0.70;;;5.40;99.90;;;;;;5003718;28;20433;-71
2021/03/14 08:33:40;;;;;;;1.00;0.30;;;5.10;99.90;;;;;;5001115;28;20496;-70
2021/03/14 08:36:08;;;;;;;0.90;0.40;;;5.10;99.90;;;;;;5018022;28;20565;-71
2021/03/14 08:38:48;;;;;;;2.00;0.50;;;6.00;99.90;;;;;;5002945;28;20401;-70
2021/03/14 08:41:24;;;;;;;0.85;0.50;;;5.30;99.90;;;;;;5003302;28;20431;-71
2021/03/14 08:44:08;;;;;;;0.90;0.60;;;5.50;99.90;;;;;;5002216;28;20502;-69
2021/03/14 08:46:45;;;;;;;0.50;0.50;;;4.90;99.90;;;;;;5002131;28;20912;-73
2021/03/14 08:49:13;;;;;;;0.80;0.40;;;4.90;99.90;;;;;;5003479;28;20442;-68
2021/03/14 08:51:39;;;;;;;1.15;0.50;;;5.30;99.90;;;;;;5002732;28;20390;-72
2021/03/14 08:54:04;;;;;;;0.93;0.40;;;5.40;99.90;;;;;;4999522;28;20840;-71
2021/03/14 08:56:31;;;;;;;1.63;0.90;;;5.00;99.90;;;;;;4999981;28;20422;-69
2021/03/14 08:59:14;;;;;;;1.65;0.73;;;5.90;99.90;;;;;;5000440;28;20423;-70
2021/03/14 09:01:40;;;;;;;2.00;0.80;;;5.70;99.90;;;;;;5000933;28;20453;-69
2021/03/14 09:04:16;;;;;;;1.52;0.70;;;6.40;99.90;;;;;;5002362;28;20860;-69
2021/03/14 09:06:42;;;;;;;0.90;0.70;;;5.50;99.90;;;;;;5001242;28;20392;-69
2021/03/14 09:09:13;;;;;;;1.77;0.50;;;5.90;99.90;;;;;;5002279;28;20419;-73
2021/03/14 09:11:50;;;;;;;1.80;0.70;;;5.40;99.90;;;;;;5003236;28;20773;-70
2021/03/14 09:14:28;;;;;;;0.90;0.60;;;5.30;99.90;;;;;;5016519;28;20404;-71
2021/03/14 09:16:56;;;;;;;0.70;0.60;;;5.30;99.90;;;;;;5003020;28;20983;-69
2021/03/14 09:19:31;;;;;;;0.70;0.50;;;5.90;99.90;;;;;;5001836;28;20532;-74
2021/03/14 09:22:23;;;;;;;1.00;0.60;;;5.80;99.90;;;;;;5001962;28;20581;-73
2021/03/14 09:24:54;;;;;;;2.50;0.88;;;7.10;99.90;;;;;;4999554;28;20412;-72
2021/03/14 09:27:28;;;;;;;0.77;0.47;;;6.40;99.90;;;;;;5003525;28;20396;-73
2021/03/14 09:30:09;;;;;;;2.07;0.90;;;5.60;99.90;;;;;;5002190;28;20413;-70
2021/03/14 09:32:41;;;;;;;1.60;0.90;;;5.90;99.90;;;;;;5013187;28;21310;-70
2021/03/14 09:35:24;;;;;;;1.00;0.70;;;6.10;99.90;;;;;;5002028;28;20723;-69
2021/03/14 09:38:00;;;;;;;1.30;0.60;;;6.90;99.90;;;;;;5003690;28;20827;-71
2021/03/14 09:40:39;;;;;;;2.42;0.50;;;7.10;99.90;;;;;;5002106;28;20483;-74
2021/03/14 09:43:05;;;;;;;1.40;0.70;;;6.10;99.90;;;;;;5000294;28;20425;-68
2021/03/14 09:45:31;;;;;;;0.60;0.30;;;6.30;99.90;;;;;;5001252;28;20405;-69
2021/03/14 09:48:17;;;;;;;1.10;0.60;;;6.50;99.90;;;;;;5002787;28;20420;-70
2021/03/14 09:50:55;;;;;;;0.70;0.40;;;6.80;99.90;;;;;;5002405;28;20451;-71
2021/03/14 09:53:23;;;;;;;1.30;0.52;;;6.90;99.90;;;;;;5000528;28;20389;-73
2021/03/14 09:56:00;;;;;;;1.20;0.50;;;7.30;99.90;;;;;;5000501;28;20475;-69
2021/03/14 09:58:27;;;;;;;1.80;0.50;;;8.30;99.90;;;;;;5001801;28;20494;-74
2021/03/14 10:00:54;;;;;;;0.70;0.50;;;7.80;99.90;;;;;;5003046;28;20413;-72
2021/03/14 10:03:22;;;;;;;0.95;0.40;;;6.90;99.90;;;;;;4999183;28;20420;-69
2021/03/14 10:05:53;;;;;;;1.83;0.50;;;7.10;99.90;;;;;;5001774;28;20964;-70
2021/03/14 10:08:23;;;;;;;1.10;0.40;;;6.90;99.90;;;;;;5002959;28;20393;-73
2021/03/14 10:10:53;;;;;;;1.50;0.50;;;7.80;99.90;;;;;;5001132;28;20401;-69
2021/03/14 10:13:20;;;;;;;1.70;0.60;;;6.80;99.90;;;;;;4996941;28;21125;-70
2021/03/14 10:15:49;;;;;;;2.40;0.80;;;7.40;99.90;;;;;;5002542;28;20397;-71
2021/03/14 10:18:18;;;;;;;1.85;0.90;;;7.10;99.90;;;;;;5002431;28;20377;-70
2021/03/14 10:20:44;;;;;;;0.70;0.50;;;7.20;99.90;;;;;;5000590;28;20458;-69
2021/03/14 10:23:10;;;;;;;1.47;0.70;;;7.20;99.90;;;;;;5000141;28;20424;-71
2021/03/14 10:25:37;;;;;;;1.00;0.70;;;7.30;99.90;;;;;;5001223;28;20388;-73
2021/03/14 10:28:05;;;;;;;1.27;0.70;;;6.10;99.90;;;;;;5001164;28;20428;-69
2021/03/14 10:30:31;;;;;;;1.23;0.90;;;6.40;99.90;;;;;;5000900;28;20393;-71
2021/03/14 10:32:57;;;;;;;1.50;0.75;;;6.20;99.90;;;;;;4998477;28;20428;-72
2021/03/14 10:35:22;;;;;;;0.93;0.63;;;6.50;99.90;;;;;;5000249;28;20407;-69
2021/03/14 10:37:48;;;;;;;1.50;0.80;;;6.90;99.90;;;;;;5000707;28;20413;-72
2021/03/14 10:40:19;;;;;;;0.90;0.70;;;6.90;99.90;;;;;;5002514;28;20968;-69
2021/03/14 10:42:47;;;;;;;3.67;0.85;;;6.00;99.90;;;;;;4999843;28;20436;-69
2021/03/14 10:45:15;;;;;;;3.50;0.88;;;7.10;99.90;;;;;;4999523;28;20877;-74
2021/03/14 10:47:42;;;;;;;0.90;0.60;;;5.90;99.90;;;;;;5001617;28;20792;-71
2021/03/14 10:50:35;;;;;;;2.10;1.08;;;5.90;99.90;;;;;;5001518;28;20432;-69
2021/03/14 10:53:10;;;;;;;1.60;0.70;;;5.70;99.90;;;;;;4996738;28;20836;-69
2021/03/14 10:55:37;;;;;;;1.50;0.70;;;5.70;99.90;;;;;;4998405;28;20396;-73
2021/03/14 10:58:07;;;;;;;1.95;0.80;;;6.10;99.90;;;;;;5002241;28;20408;-73
2021/03/14 11:00:34;;;;;;;2.40;0.90;;;5.90;99.90;;;;;;5001188;28;20422;-70
2021/03/14 11:03:01;;;;;;;1.90;0.90;;;5.20;99.90;;;;;;4998457;28;21108;-69
2021/03/14 11:05:27;;;;;;;2.17;0.90;;;5.80;99.90;;;;;;5015490;28;20409;-75
2021/03/14 11:08:00;;;;;;;1.00;0.90;;;5.30;99.90;;;;;;5001641;28;20389;-72
2021/03/14 11:10:26;;;;;;;2.30;1.05;;;5.10;99.90;;;;;;5000584;28;20404;-75
2021/03/14 11:12:52;;;;;;;2.20;0.80;;;5.10;99.90;;;;;;4998371;28;20406;-73
2021/03/14 11:15:30;;;;;;;2.30;0.80;;;4.60;99.90;;;;;;5001602;28;20400;-71
2021/03/14 11:17:57;;;;;;;3.60;1.40;;;4.50;99.90;;;;;;5002509;28;20387;-68
2021/03/14 11:20:26;;;;;;;3.40;1.80;;;4.60;99.90;;;;;;4999791;28;20420;-71
2021/03/14 11:22:55;;;;;;;2.53;0.80;;;5.00;99.90;;;;;;4999072;28;20424;-70
2021/03/14 11:25:22;;;;;;;1.00;0.80;;;5.20;99.90;;;;;;5001893;28;20442;-71
2021/03/14 11:27:49;;;;;;;1.35;0.82;;;5.30;99.90;;;;;;4998563;28;21051;-68
2021/03/14 11:30:17;;;;;;;0.90;0.70;;;5.10;99.90;;;;;;5000431;28;20432;-69
2021/03/14 11:32:43;;;;;;;1.88;0.80;;;4.20;99.90;;;;;;4999704;28;20407;-71
2021/03/14 11:35:10;;;;;;;1.65;1.08;;;4.80;99.90;;;;;;5000707;28;20397;-68
2021/03/14 11:37:36;;;;;;;2.60;1.00;;;4.20;99.90;;;;;;4999977;28;20404;-69
2021/03/14 11:40:05;;;;;;;2.50;0.80;;;4.60;99.90;;;;;;5002182;28;20421;-70
2021/03/14 11:42:31;;;;;;;3.55;1.10;;;4.30;99.90;;;;;;4999918;28;20416;-73
2021/03/14 11:44:56;;;;;;;1.40;0.90;;;4.40;99.90;;;;;;4999829;28;20397;-70
2021/03/14 11:47:23;;;;;;;2.30;0.90;;;4.30;99.90;;;;;;5000851;28;20393;-71
2021/03/14 11:49:49;;;;;;;1.00;0.77;;;4.70;99.90;;;;;;4999877;28;20413;-70
2021/03/14 11:52:15;;;;;;;1.10;0.80;;;4.70;99.90;;;;;;5000234;28;20389;-70
2021/03/14 11:54:41;;;;;;;2.13;0.93;;;4.40;99.90;;;;;;4994435;28;20513;-69
2021/03/14 11:57:07;;;;;;;1.63;0.80;;;4.30;99.90;;;;;;5004528;28;20824;-69
2021/03/14 11:59:32;;;;;;;0.85;0.60;;;3.90;99.90;;;;;;5008358;28;20897;-73
2021/03/14 12:01:58;;;;;;;1.50;0.70;;;4.40;99.90;;;;;;5005205;28;20451;-70
2021/03/14 12:04:24;;;;;;;2.42;0.70;;;5.10;99.90;;;;;;5002335;28;20397;-69
2021/03/14 12:06:49;;;;;;;1.17;0.90;;;3.40;99.90;;;;;;5014938;28;20400;-69
2021/03/14 12:09:15;;;;;;;1.30;0.83;;;4.30;99.90;;;;;;5004841;28;20384;-71
2021/03/14 12:11:42;;;;;;;1.60;0.70;;;4.70;99.90;;;;;;5003830;28;20443;-69
2021/03/14 12:14:08;;;;;;;1.48;1.00;;;4.40;99.90;;;;;;5001588;28;20411;-72
2021/03/14 12:16:34;;;;;;;0.70;0.60;;;4.60;99.90;;;;;;5012245;28;20932;-68
2021/03/14 12:19:00;;;;;;;2.95;0.75;;;5.10;99.90;;;;;;5011594;28;20472;-68
2021/03/14 12:21:26;;;;;;;0.80;0.60;;;5.90;99.90;;;;;;5012065;28;20419;-69
2021/03/14 12:23:51;;;;;;;1.50;0.70;;;5.00;99.90;;;;;;5011551;28;20499;-68
2021/03/14 12:26:17;;;;;;;2.80;0.60;;;5.50;99.90;;;;;;5012372;28;20436;-69
2021/03/14 12:28:43;;;;;;;0.90;0.52;;;6.10;99.90;;;;;;5027781;28;20393;-69
2021/03/14 12:31:09;;;;;;;1.17;0.68;;;5.10;99.90;;;;;;5010989;28;20399;-69
2021/03/14 12:33:34;;;;;;;0.73;0.63;;;5.20;99.90;;;;;;4992754;28;20883;-70
2021/03/14 12:36:00;;;;;;;0.87;0.60;;;6.20;99.90;;;;;;4992979;28;20422;-68
2021/03/14 12:38:26;;;;;;;2.30;0.80;;;5.30;99.90;;;;;;4993039;28;20744;-69
2021/03/14 12:40:51;;;;;;;0.80;0.40;;;6.00;99.90;;;;;;4992077;28;20397;-68
2021/03/14 12:43:20;;;;;;;1.23;0.73;;;5.90;99.90;;;;;;4992263;28;20887;-67
2021/03/14 12:45:49;;;;;;;0.90;0.63;;;6.70;99.90;;;;;;4991584;28;20790;-67
2021/03/14 12:48:17;;;;;;;2.10;0.50;;;5.50;99.90;;;;;;4992812;28;20391;-67
2021/03/14 12:50:51;;;;;;;0.90;0.50;;;6.10;99.90;;;;;;4992023;28;20764;-68
2021/03/14 12:53:17;;;;;;;0.60;0.50;;;5.50;99.90;;;;;;4992265;28;20478;-68
2021/03/14 12:55:43;;;;;;;1.05;0.60;;;5.30;99.90;;;;;;4991947;28;20427;-67
2021/03/14 12:58:09;;;;;;;1.00;0.90;;;5.70;99.90;;;;;;4992485;28;20429;-69
2021/03/14 13:00:34;;;;;;;2.03;0.80;;;5.70;99.90;;;;;;4992543;28;20387;-71
2021/03/14 13:03:00;;;;;;;1.27;0.80;;;6.00;99.90;;;;;;4991123;28;20414;-68
2021/03/14 13:05:26;;;;;;;1.07;0.73;;;5.20;99.90;;;;;;4993144;28;20403;-69
2021/03/14 13:07:55;;;;;;;2.17;0.80;;;5.40;99.90;;;;;;4990902;28;20479;-69